Time;durP1;ratioP1;P1;durP2;ratioP2;P2;SDS_P1;SDS_P2;PMS_P1;PMS_P2;Temp;Humidity;BMP_temperature;BMP_pressure;BME280_temperature;BME280_humidity;BME280_pressure;Samples;Min_cycle;Max_cycle;Signal;HPM_P1;HPM_P2
2022/08/18 14:52:40;;;;;;;9.23;8.30;;;29.40;99.90;;;;;;5109439;27;20918;-75
2022/08/18 14:55:08;;;;;;;8.93;8.02;;;32.10;99.90;;;;;;5074493;28;20051;-75
2022/08/18 14:57:33;;;;;;;8.90;8.02;;;33.10;99.90;;;;;;5088882;28;20025;-75
2022/08/18 14:59:59;;;;;;;8.98;7.30;;;34.10;99.50;;;;;;5089385;28;20028;-75
2022/08/18 15:02:24;;;;;;;8.13;7.32;;;34.30;98.30;;;;;;5089062;28;20029;-76
2022/08/18 15:04:50;;;;;;;10.10;7.85;;;34.60;98.30;;;;;;5095628;28;20099;-76
2022/08/18 15:07:15;;;;;;;11.38;7.95;;;35.20;97.20;;;;;;5094290;28;20029;-76
2022/08/18 15:09:41;;;;;;;8.75;7.57;;;35.00;97.40;;;;;;5087627;28;20024;-76
2022/08/18 15:12:07;;;;;;;9.27;7.63;;;34.90;96.80;;;;;;5088787;28;20032;-76
2022/08/18 15:14:34;;;;;;;8.57;7.78;;;35.20;96.30;;;;;;5109347;28;20072;-76
2022/08/18 15:17:05;;;;;;;9.20;7.78;;;34.90;96.70;;;;;;5109361;28;20418;-76
2022/08/18 15:19:31;;;;;;;8.00;7.30;;;35.80;95.60;;;;;;5100617;28;20518;-77
2022/08/18 15:27:31;;;;;;;8.63;7.72;;;33.90;96.00;;;;;;5102891;28;20070;-76
2022/08/18 15:29:57;;;;;;;8.43;7.50;;;34.70;95.50;;;;;;5087516;28;20432;-76
2022/08/18 15:32:23;;;;;;;8.07;7.38;;;34.30;95.40;;;;;;5075069;28;20027;-77
2022/08/18 15:34:49;;;;;;;8.23;7.50;;;34.80;95.30;;;;;;5088966;28;20024;-77
2022/08/18 15:37:15;;;;;;;8.60;7.80;;;34.70;94.90;;;;;;5088599;28;20363;-76
2022/08/18 15:39:41;;;;;;;10.68;7.95;;;34.40;95.30;;;;;;5088927;28;20035;-76
2022/08/18 15:42:09;;;;;;;10.95;7.78;;;35.20;95.10;;;;;;5109022;28;20028;-76
2022/08/18 15:44:35;;;;;;;7.95;7.25;;;35.30;94.60;;;;;;5095155;28;20020;-76
2022/08/18 15:47:03;;;;;;;22.48;8.75;;;36.20;93.90;;;;;;5087882;28;20182;-76
2022/08/18 15:49:29;;;;;;;13.35;7.80;;;36.40;93.80;;;;;;5101909;28;20023;-76
2022/08/18 15:51:55;;;;;;;8.25;7.57;;;37.10;93.10;;;;;;5074227;28;20402;-76
2022/08/18 15:54:21;;;;;;;8.05;7.22;;;36.90;92.80;;;;;;5089064;28;20623;-76
2022/08/18 15:56:46;;;;;;;8.95;8.07;;;35.30;93.30;;;;;;5088010;28;20095;-76
2022/08/18 15:59:12;;;;;;;8.50;7.57;;;33.80;94.20;;;;;;5088021;28;20103;-75
2022/08/18 16:01:37;;;;;;;8.43;7.60;;;33.60;94.70;;;;;;5094101;28;20056;-76
2022/08/18 16:04:06;;;;;;;9.18;8.15;;;33.90;94.60;;;;;;5094529;28;20579;-76
2022/08/18 16:06:33;;;;;;;8.63;7.63;;;33.90;94.50;;;;;;5094556;28;20056;-76
2022/08/18 16:09:00;;;;;;;8.48;7.65;;;33.50;94.60;;;;;;5083897;28;20016;-76
2022/08/18 16:11:26;;;;;;;8.52;7.70;;;33.10;95.40;;;;;;5081664;28;20027;-76
2022/08/18 16:13:52;;;;;;;8.85;8.05;;;33.30;95.00;;;;;;5088926;28;20094;-76
2022/08/18 16:16:21;;;;;;;8.63;7.72;;;33.00;95.20;;;;;;5083174;28;20025;-76
2022/08/18 16:18:47;;;;;;;8.88;8.07;;;32.50;95.50;;;;;;5083172;28;20021;-75
2022/08/18 16:21:22;;;;;;;8.98;8.10;;;32.90;95.00;;;;;;5092325;28;20077;-76
2022/08/18 16:23:51;;;;;;;8.02;7.20;;;31.90;95.40;;;;;;5082387;28;20020;-75
2022/08/18 16:26:18;;;;;;;8.25;7.55;;;31.60;95.70;;;;;;5081639;28;20030;-76
2022/08/18 16:28:46;;;;;;;8.35;7.55;;;31.20;95.80;;;;;;5083946;28;20016;-76
2022/08/18 16:31:14;;;;;;;9.27;7.90;;;30.40;96.70;;;;;;5080748;28;20023;-76
2022/08/18 16:33:43;;;;;;;8.80;8.00;;;30.20;96.90;;;;;;5090701;28;20078;-76
2022/08/18 16:36:10;;;;;;;7.88;7.07;;;30.00;97.00;;;;;;5089116;28;20445;-75
2022/08/18 16:38:41;;;;;;;10.80;8.02;;;30.20;96.90;;;;;;5092327;28;20092;-76
2022/08/18 16:41:10;;;;;;;8.63;7.30;;;29.90;97.30;;;;;;5084150;28;20024;-76
2022/08/18 16:43:37;;;;;;;8.38;7.60;;;29.60;97.60;;;;;;5085252;28;20031;-75
2022/08/18 16:46:07;;;;;;;8.32;7.57;;;29.60;97.20;;;;;;5083668;28;20027;-75
2022/08/18 16:48:33;;;;;;;8.38;7.68;;;29.50;97.50;;;;;;5080235;28;20517;-75
2022/08/18 16:50:59;;;;;;;8.15;7.35;;;29.50;97.70;;;;;;5080338;28;20040;-76
2022/08/18 16:53:24;;;;;;;10.35;7.63;;;29.20;97.80;;;;;;5087920;28;20146;-75
2022/08/18 16:55:50;;;;;;;10.30;7.65;;;29.10;97.80;;;;;;5089597;28;20059;-75
2022/08/18 17:06:30;;;;;;;8.63;6.93;;;28.00;98.70;;;;;;5086977;28;20534;-75
2022/08/18 17:08:56;;;;;;;8.23;7.40;;;27.70;99.40;;;;;;5088288;28;20016;-76
2022/08/18 17:11:25;;;;;;;8.80;7.95;;;27.50;99.30;;;;;;5088206;28;20158;-75
2022/08/18 17:13:53;;;;;;;7.97;7.20;;;27.50;99.60;;;;;;5085443;28;20422;-75
2022/08/18 17:16:21;;;;;;;9.60;7.88;;;27.30;99.80;;;;;;5089198;28;20103;-75
2022/08/18 17:18:47;;;;;;;8.15;7.43;;;27.30;99.90;;;;;;5082295;28;20158;-75
2022/08/18 17:21:17;;;;;;;9.48;8.02;;;27.10;99.90;;;;;;5091918;28;20024;-75
2022/08/18 17:23:44;;;;;;;9.90;7.72;;;27.10;99.90;;;;;;5085887;28;20082;-75
2022/08/18 17:26:28;;;;;;;8.10;7.32;;;27.10;99.90;;;;;;5087972;28;20074;-75
2022/08/18 17:29:04;;;;;;;8.50;7.75;;;26.90;99.90;;;;;;5083845;28;20456;-75
2022/08/18 17:31:31;;;;;;;8.10;7.38;;;26.70;99.90;;;;;;5089285;28;20512;-75
2022/08/18 17:34:04;;;;;;;8.10;7.30;;;26.60;99.90;;;;;;5085867;28;20031;-75
2022/08/18 17:36:36;;;;;;;8.70;7.80;;;26.60;99.90;;;;;;5083341;28;20024;-75
2022/08/18 17:39:06;;;;;;;8.68;7.88;;;26.60;99.90;;;;;;5078117;28;20059;-75
2022/08/18 17:42:24;;;;;;;9.77;8.77;;;26.70;99.90;;;;;;5090654;28;20024;-77
2022/08/18 17:44:18;;;;;;;11.05;7.47;;;26.60;99.90;;;;;;5090790;28;20020;-78
2022/08/18 17:46:44;;;;;;;9.52;8.25;;;26.30;99.90;;;;;;5083400;28;20016;-78
2022/08/18 17:52:22;;;;;;;9.05;7.90;;;26.30;99.90;;;;;;5071682;28;20039;-78
2022/08/18 17:54:51;;;;;;;9.57;8.25;;;26.20;99.90;;;;;;5084074;28;20486;-78
2022/08/18 17:57:29;;;;;;;10.50;8.75;;;26.10;99.90;;;;;;5088560;28;20028;-76
2022/08/18 18:00:04;;;;;;;14.07;8.35;;;25.90;99.90;;;;;;5080608;28;20028;-77
2022/08/18 18:02:32;;;;;;;12.55;8.18;;;26.00;99.90;;;;;;5085880;28;20359;-77
2022/08/18 18:05:05;;;;;;;13.50;8.45;;;26.00;99.90;;;;;;5074626;28;20546;-78
2022/08/18 18:07:42;;;;;;;16.00;8.07;;;26.00;99.90;;;;;;5074354;28;20474;-77
2022/08/18 18:10:24;;;;;;;15.15;8.32;;;26.00;99.90;;;;;;5073655;28;20052;-78
2022/08/18 18:13:25;;;;;;;14.27;8.10;;;25.90;99.90;;;;;;5074211;28;20482;-78
2022/08/18 18:15:55;;;;;;;14.23;8.43;;;25.80;99.90;;;;;;5083259;28;20032;-78
2022/08/18 18:18:32;;;;;;;15.90;8.35;;;25.70;99.90;;;;;;5088991;28;20023;-77
2022/08/18 18:21:17;;;;;;;12.52;8.50;;;25.70;99.90;;;;;;5086499;28;20069;-78
2022/08/18 18:23:49;;;;;;;11.50;8.48;;;25.70;99.90;;;;;;5083325;28;20016;-78
2022/08/18 18:26:21;;;;;;;11.82;8.48;;;25.50;99.90;;;;;;5088825;28;20032;-76
2022/08/18 18:28:47;;;;;;;10.82;8.40;;;25.40;99.90;;;;;;5083142;28;20016;-78
2022/08/18 18:31:23;;;;;;;13.93;8.63;;;25.40;99.90;;;;;;5086643;28;20020;-76
2022/08/18 18:33:56;;;;;;;12.70;8.52;;;25.20;99.90;;;;;;5085433;28;20495;-77
2022/08/18 18:36:32;;;;;;;11.07;8.70;;;25.30;99.90;;;;;;5078736;28;20056;-79
2022/08/18 18:39:18;;;;;;;12.65;8.90;;;25.20;99.90;;;;;;5076851;28;20028;-79
2022/08/18 18:41:45;;;;;;;14.30;9.03;;;25.10;99.90;;;;;;5095577;28;20016;-78
2022/08/18 18:44:13;;;;;;;13.90;9.23;;;25.00;99.90;;;;;;5085193;28;20469;-77
2022/08/18 18:47:34;;;;;;;10.25;8.98;;;24.80;99.90;;;;;;5081166;28;20021;-77
2022/08/18 18:50:28;;;;;;;13.10;9.10;;;24.70;99.90;;;;;;5068297;28;20032;-77
2022/08/18 18:53:03;;;;;;;9.80;8.80;;;24.60;99.90;;;;;;5076630;28;20059;-77
2022/08/18 18:55:35;;;;;;;10.77;9.77;;;24.60;99.90;;;;;;5090651;28;20027;-78
2022/08/18 18:58:29;;;;;;;11.80;8.90;;;24.40;99.90;;;;;;5082784;28;20016;-77
2022/08/18 19:01:02;;;;;;;11.88;9.45;;;24.50;99.90;;;;;;5080885;28;20078;-77
2022/08/18 19:03:36;;;;;;;9.80;8.85;;;24.40;99.90;;;;;;5082227;28;20088;-76
2022/08/18 19:06:25;;;;;;;11.55;9.48;;;24.40;99.90;;;;;;5085220;28;20027;-77
2022/08/18 19:08:56;;;;;;;10.35;9.10;;;24.30;99.90;;;;;;5072046;28;20016;-76
2022/08/18 19:12:03;;;;;;;10.70;9.60;;;24.30;99.90;;;;;;5064563;28;20032;-76
2022/08/18 19:14:44;;;;;;;10.90;9.80;;;24.30;99.90;;;;;;5085800;28;20062;-77
2022/08/18 19:17:18;;;;;;;10.35;9.35;;;24.20;99.90;;;;;;5083468;28;20034;-76
2022/08/18 19:19:56;;;;;;;10.18;9.05;;;24.20;99.90;;;;;;5082114;28;20047;-77
2022/08/18 19:22:45;;;;;;;12.38;8.98;;;24.30;99.90;;;;;;5083201;28;20025;-76
2022/08/18 19:25:20;;;;;;;11.63;8.98;;;24.20;99.90;;;;;;5083938;28;20020;-76
2022/08/18 19:27:55;;;;;;;9.88;8.88;;;24.20;99.90;;;;;;5083188;28;20044;-76
2022/08/18 19:30:22;;;;;;;11.20;9.68;;;24.20;99.90;;;;;;5078335;28;20021;-77
2022/08/18 19:32:52;;;;;;;12.63;9.60;;;24.10;99.90;;;;;;5075561;28;20036;-76
2022/08/18 19:35:49;;;;;;;12.60;9.27;;;24.10;99.90;;;;;;5085826;28;20050;-77
2022/08/18 19:38:23;;;;;;;;;;;24.00;99.90;;;;;;5076351;28;20027;-77
2022/08/18 19:40:59;;;;;;;10.75;9.85;;;23.90;99.90;;;;;;5079859;28;19915;-77
2022/08/18 19:43:26;;;;;;;;;;;23.80;99.90;;;;;;5085213;28;20019;-76
2022/08/18 19:46:03;;;;;;;10.50;9.48;;;23.90;99.90;;;;;;5092398;28;20373;-77
2022/08/18 19:48:33;;;;;;;10.57;9.25;;;23.90;99.90;;;;;;5089547;28;20032;-76
2022/08/18 19:51:05;;;;;;;11.30;10.13;;;23.80;99.90;;;;;;5093125;28;20032;-77
2022/08/18 19:53:52;;;;;;;12.15;9.63;;;23.80;99.90;;;;;;5094086;28;20517;-76
2022/08/18 19:56:24;;;;;;;12.23;11.02;;;23.70;99.90;;;;;;5087603;28;20023;-77
2022/08/18 19:59:08;;;;;;;10.52;9.60;;;23.50;99.90;;;;;;5075847;28;20150;-77
2022/08/18 20:01:53;;;;;;;10.82;9.65;;;23.60;99.90;;;;;;5082644;28;20028;-77
2022/08/18 20:04:59;;;;;;;10.43;9.43;;;23.60;99.90;;;;;;5082512;28;20016;-77
2022/08/18 20:08:05;;;;;;;12.15;9.80;;;23.40;99.90;;;;;;5083357;28;20091;-76
2022/08/18 20:10:42;;;;;;;11.52;10.13;;;23.40;99.90;;;;;;5085197;28;20490;-76
2022/08/18 20:13:37;;;;;;;11.88;10.68;;;23.50;99.90;;;;;;5084457;28;20031;-76
2022/08/18 20:16:09;;;;;;;12.68;11.02;;;23.40;99.90;;;;;;5090583;28;20373;-77
2022/08/18 20:18:36;;;;;;;13.07;11.30;;;23.50;99.90;;;;;;5091456;28;20082;-76
2022/08/18 20:21:45;;;;;;;13.85;12.45;;;23.30;99.90;;;;;;5093797;28;20038;-76
2022/08/18 20:24:37;;;;;;;14.98;13.48;;;23.30;99.90;;;;;;5074429;28;20347;-76
2022/08/18 20:27:41;;;;;;;14.75;13.13;;;23.40;99.90;;;;;;5079238;28;20019;-77
2022/08/18 20:30:19;;;;;;;15.82;14.32;;;23.30;99.90;;;;;;5028224;28;20021;-77
2022/08/18 20:33:12;;;;;;;15.60;13.43;;;23.20;99.90;;;;;;5031963;28;20025;-79
2022/08/18 20:35:40;;;;;;;14.77;13.30;;;23.30;99.90;;;;;;5081691;28;20040;-78
2022/08/18 20:38:38;;;;;;;16.67;14.25;;;23.30;99.90;;;;;;5095984;28;20425;-79
2022/08/18 20:41:25;;;;;;;16.58;14.80;;;23.50;99.90;;;;;;5088067;28;20040;-79
2022/08/18 20:44:16;;;;;;;16.27;14.68;;;23.20;99.90;;;;;;5087934;28;20035;-79
2022/08/18 20:46:44;;;;;;;16.98;14.68;;;23.30;99.90;;;;;;5086219;28;20063;-79
2022/08/18 20:49:32;;;;;;;17.63;15.15;;;23.30;99.90;;;;;;5093477;28;20117;-79
2022/08/18 20:52:16;;;;;;;16.05;14.55;;;23.40;99.90;;;;;;5084194;28;20087;-79
2022/08/18 20:55:03;;;;;;;16.65;14.95;;;23.30;99.90;;;;;;5094495;28;20032;-79
2022/08/18 20:57:34;;;;;;;17.05;15.32;;;23.30;99.90;;;;;;5092802;28;20031;-79
2022/08/18 21:00:17;;;;;;;98.95;21.25;;;23.40;99.90;;;;;;5090504;28;20051;-79
2022/08/18 21:02:57;;;;;;;22.50;14.60;;;23.20;99.90;;;;;;5084895;28;20021;-78
2022/08/18 21:05:35;;;;;;;23.85;17.35;;;23.30;99.90;;;;;;5094177;28;20445;-78
2022/08/18 21:08:25;;;;;;;25.95;19.92;;;23.20;99.90;;;;;;5089473;28;20024;-78
2022/08/18 21:10:59;;;;;;;26.85;21.58;;;23.00;99.90;;;;;;5083491;28;20482;-78
2022/08/18 21:13:44;;;;;;;26.33;21.45;;;22.80;99.90;;;;;;5085234;28;20501;-77
2022/08/18 21:16:13;;;;;;;22.10;19.08;;;22.40;99.90;;;;;;5086336;28;20119;-77
2022/08/18 21:18:47;;;;;;;21.35;18.88;;;22.10;99.90;;;;;;5083989;28;20083;-77
2022/08/18 21:21:20;;;;;;;23.63;21.25;;;22.00;99.90;;;;;;5066935;28;20486;-76
2022/08/18 21:23:56;;;;;;;26.13;22.85;;;22.00;99.90;;;;;;5082705;28;20025;-77
2022/08/18 21:26:22;;;;;;;30.48;25.98;;;21.70;99.90;;;;;;5089075;28;20020;-77
2022/08/18 21:28:56;;;;;;;26.55;23.88;;;21.80;99.90;;;;;;5089446;28;20386;-76
2022/08/18 21:31:37;;;;;;;30.67;27.48;;;21.50;99.90;;;;;;5083869;28;20020;-78
2022/08/18 21:34:34;;;;;;;30.63;27.42;;;21.50;99.90;;;;;;5081716;28;20052;-79
2022/08/18 21:37:05;;;;;;;31.92;25.77;;;21.20;99.90;;;;;;5088573;28;20060;-77
2022/08/18 21:39:30;;;;;;;24.10;21.63;;;21.10;99.90;;;;;;5075562;28;20462;-77
2022/08/18 21:41:58;;;;;;;25.23;21.92;;;21.40;99.90;;;;;;5086831;28;20107;-77
2022/08/18 21:44:40;;;;;;;32.03;23.40;;;21.60;99.90;;;;;;5085540;28;20012;-78
2022/08/18 21:47:19;;;;;;;28.27;21.88;;;21.10;99.90;;;;;;5067943;28;20026;-79
2022/08/18 21:50:00;;;;;;;29.58;25.52;;;20.90;99.90;;;;;;5078237;28;20020;-77
2022/08/18 21:52:27;;;;;;;30.90;27.17;;;20.70;99.90;;;;;;5079414;28;20044;-78
2022/08/18 21:54:57;;;;;;;29.88;26.08;;;20.30;99.90;;;;;;5086329;28;20482;-78
2022/08/18 21:57:26;;;;;;;31.77;27.65;;;20.30;99.90;;;;;;5087863;28;20114;-76
2022/08/18 22:00:22;;;;;;;28.75;25.63;;;20.20;99.90;;;;;;5072653;28;20098;-77
2022/08/18 22:02:50;;;;;;;31.50;28.17;;;20.10;99.90;;;;;;5072890;28;20024;-76
2022/08/18 22:05:31;;;;;;;30.73;27.35;;;19.90;99.90;;;;;;5071096;28;20025;-76
2022/08/18 22:07:56;;;;;;;32.42;28.55;;;19.90;99.90;;;;;;5085629;28;20511;-75
2022/08/18 22:16:19;;;;;;;35.33;29.85;;;20.30;99.90;;;;;;5085902;28;20531;-76
2022/08/18 22:18:45;;;;;;;32.63;28.65;;;20.30;99.90;;;;;;5094316;28;20020;-76
2022/08/18 22:21:32;;;;;;;32.70;27.75;;;20.10;99.90;;;;;;5080381;28;20392;-76
2022/08/18 22:27:03;;;;;;;33.38;29.20;;;20.30;99.90;;;;;;5055944;28;20390;-76
2022/08/18 22:29:31;;;;;;;30.27;25.88;;;20.20;99.90;;;;;;5078231;28;20040;-76
2022/08/18 22:31:58;;;;;;;31.60;26.65;;;20.10;99.90;;;;;;5083912;28;20032;-76
2022/08/18 22:34:30;;;;;;;34.13;27.15;;;20.30;99.90;;;;;;5082396;28;20031;-76
2022/08/18 22:37:09;;;;;;;29.55;25.70;;;20.20;99.90;;;;;;5077316;28;20473;-76
2022/08/18 22:39:46;;;;;;;31.65;26.80;;;20.00;99.90;;;;;;5079153;28;20036;-76
2022/08/18 22:42:14;;;;;;;32.28;25.67;;;20.00;99.90;;;;;;5065142;28;20119;-77
2022/08/18 22:44:41;;;;;;;27.75;24.42;;;20.10;99.90;;;;;;5080307;28;20016;-77
2022/08/18 22:47:09;;;;;;;33.22;27.35;;;20.10;99.90;;;;;;5090762;28;20105;-77
2022/08/18 22:49:35;;;;;;;31.33;26.75;;;20.10;99.90;;;;;;5078586;28;20025;-77
2022/08/18 22:52:22;;;;;;;31.30;27.20;;;20.10;99.90;;;;;;5084746;28;20029;-76
2022/08/18 22:54:48;;;;;;;33.33;27.45;;;20.20;99.90;;;;;;5084860;28;20047;-76
2022/08/18 22:57:14;;;;;;;31.65;26.73;;;20.30;99.90;;;;;;5082374;28;20023;-76
2022/08/18 22:59:40;;;;;;;32.53;27.55;;;20.20;99.90;;;;;;5076961;28;20035;-77
2022/08/18 23:02:07;;;;;;;29.40;26.40;;;20.20;99.90;;;;;;5082322;28;20028;-78
2022/08/18 23:04:32;;;;;;;33.53;26.60;;;20.30;99.90;;;;;;5078663;28;20089;-76
2022/08/18 23:06:59;;;;;;;30.40;27.17;;;20.40;99.90;;;;;;5081593;28;20470;-78
2022/08/18 23:09:28;;;;;;;33.13;28.52;;;20.40;99.90;;;;;;5086425;28;20032;-76
2022/08/18 23:11:58;;;;;;;34.28;29.95;;;20.40;99.90;;;;;;5082638;28;20107;-76
2022/08/18 23:14:24;;;;;;;34.42;29.42;;;20.40;99.90;;;;;;5081115;28;20027;-78
2022/08/18 23:16:50;;;;;;;34.65;30.92;;;20.30;99.90;;;;;;5085278;28;20070;-77
2022/08/18 23:19:17;;;;;;;35.10;29.15;;;20.30;99.90;;;;;;5091285;28;20108;-78
2022/08/18 23:21:44;;;;;;;37.72;32.72;;;20.20;99.90;;;;;;5083631;28;20020;-79
2022/08/18 23:24:13;;;;;;;34.78;30.88;;;20.20;99.90;;;;;;5087701;28;20474;-78
2022/08/18 23:26:39;;;;;;;36.92;31.00;;;20.20;99.90;;;;;;5083545;28;20108;-77
2022/08/18 23:29:06;;;;;;;37.22;31.63;;;20.20;99.90;;;;;;5089077;28;20369;-77
2022/08/18 23:31:32;;;;;;;43.75;33.63;;;19.90;99.90;;;;;;5088357;28;20194;-77
2022/08/18 23:33:59;;;;;;;47.05;36.30;;;20.10;99.90;;;;;;5081799;28;20028;-78
2022/08/18 23:36:26;;;;;;;37.97;33.03;;;20.20;99.90;;;;;;5084641;28;20035;-78
2022/08/18 23:38:52;;;;;;;37.78;32.35;;;20.10;99.90;;;;;;5091350;28;20064;-77
2022/08/18 23:41:20;;;;;;;39.88;33.72;;;20.20;99.90;;;;;;5090525;28;20070;-77
2022/08/18 23:43:46;;;;;;;36.38;32.38;;;20.10;99.90;;;;;;5068770;28;20531;-76
2022/08/18 23:46:40;;;;;;;41.25;33.97;;;20.10;99.90;;;;;;5081897;28;20505;-77
2022/08/18 23:49:12;;;;;;;38.45;33.60;;;20.10;99.90;;;;;;5083557;28;20486;-76
2022/08/18 23:51:58;;;;;;;41.47;34.88;;;20.00;99.90;;;;;;5087530;28;20036;-76
2022/08/18 23:54:33;;;;;;;37.03;32.25;;;20.00;99.90;;;;;;5089864;28;20028;-77
2022/08/18 23:56:59;;;;;;;45.20;35.55;;;20.00;99.90;;;;;;5086269;28;20048;-77
2022/08/18 23:59:27;;;;;;;45.53;36.70;;;20.10;99.90;;;;;;5088938;28;20028;-77
